RYR8128 EICK-LIRP
Flight info
| Callsign | RYR8128 |
|---|---|
| Flight time | 2h 21m |
| Altitude | 37000 |
| Route | ERTER1S ERTER DCT LEDGO N160 EVCOR DCT NAKID DCT LIZAD DCT JSY DCT ARSUK DCT RESMI UN491 POGZI DCT LUVAL DCT SHARA DCT DEVDI DCT ODINA DCT SRN DCT ROBAS DCT OSBUL DCT EKPAL DCT MIVKI |
| Aircraft | B738/M-SDE3FGILRWY/SB1 |
Departure
| Time | 2026-05-07 19:06 |
|---|---|
| Airport | Cork International Airport (EICK) |
Arrival
| Time | 2026-05-07 21:27 |
|---|---|
| Airport | Pisa International Airport (LIRP) |
| Time | Latitude | Longitude | Altitude | Speed | Heading |
|---|---|---|---|---|---|
| 2026-05-07 18:19 | 51.84892 | -8.49086 | 502 ft | 0 kts | 70° |
| 2026-05-07 18:58 | 51.84885 | -8.49116 | 502 ft | 3 kts | 70° |
| 2026-05-07 18:58 | 51.84877 | -8.49152 | 502 ft | 3 kts | 70° |
| 2026-05-07 18:58 | 51.84870 | -8.49182 | 502 ft | 3 kts | 62° |
| 2026-05-07 18:58 | 51.84856 | -8.49210 | 502 ft | 3 kts | 28° |
| 2026-05-07 18:59 | 51.84835 | -8.49220 | 502 ft | 4 kts | 355° |
| 2026-05-07 18:59 | 51.84813 | -8.49215 | 501 ft | 4 kts | 349° |
| 2026-05-07 18:59 | 51.84804 | -8.49212 | 502 ft | 1 kts | 349° |
| 2026-05-07 19:01 | 51.84805 | -8.49212 | 502 ft | 0 kts | 349° |
| 2026-05-07 19:02 | 51.84834 | -8.49222 | 501 ft | 9 kts | 345° |
| 2026-05-07 19:02 | 51.84882 | -8.49249 | 502 ft | 12 kts | 341° |
| 2026-05-07 19:02 | 51.84967 | -8.49285 | 502 ft | 12 kts | 347° |
| 2026-05-07 19:02 | 51.85047 | -8.49330 | 502 ft | 12 kts | 340° |
| 2026-05-07 19:03 | 51.85142 | -8.49409 | 501 ft | 12 kts | 298° |
| 2026-05-07 19:03 | 51.85136 | -8.49475 | 494 ft | 9 kts | 231° |
| 2026-05-07 19:03 | 51.85113 | -8.49498 | 493 ft | 0 kts | 206° |
| 2026-05-07 19:04 | 51.85082 | -8.49523 | 486 ft | 9 kts | 206° |
| 2026-05-07 19:04 | 51.85018 | -8.49587 | 485 ft | 10 kts | 235° |
| 2026-05-07 19:04 | 51.84999 | -8.49621 | 485 ft | 1 kts | 158° |
| 2026-05-07 19:05 | 51.84977 | -8.49608 | 488 ft | 14 kts | 159° |
| 2026-05-07 19:05 | 51.84637 | -8.49409 | 488 ft | 89 kts | 160° |
| 2026-05-07 19:05 | 51.83845 | -8.48945 | 476 ft | 152 kts | 161° |
| 2026-05-07 19:05 | 51.82807 | -8.48325 | 1098 ft | 160 kts | 164° |
| 2026-05-07 19:06 | 51.81731 | -8.47790 | 1946 ft | 163 kts | 167° |
| 2026-05-07 19:06 | 51.79275 | -8.46444 | 2814 ft | 213 kts | 147° |
| 2026-05-07 19:06 | 51.78244 | -8.44659 | 3452 ft | 222 kts | 131° |
| 2026-05-07 19:07 | 51.77252 | -8.42644 | 3974 ft | 241 kts | 130° |
| 2026-05-07 19:07 | 51.76146 | -8.40406 | 4421 ft | 263 kts | 130° |
| 2026-05-07 19:07 | 51.74998 | -8.38076 | 5314 ft | 266 kts | 129° |
| 2026-05-07 19:07 | 51.73850 | -8.35741 | 6174 ft | 271 kts | 129° |
| 2026-05-07 19:08 | 51.72668 | -8.33339 | 6999 ft | 275 kts | 130° |
| 2026-05-07 19:08 | 51.71467 | -8.30904 | 7870 ft | 278 kts | 130° |
| 2026-05-07 19:08 | 51.70247 | -8.28435 | 8685 ft | 284 kts | 131° |
| 2026-05-07 19:08 | 51.69004 | -8.25920 | 9544 ft | 287 kts | 131° |
| 2026-05-07 19:09 | 51.67748 | -8.23383 | 10329 ft | 293 kts | 131° |
| 2026-05-07 19:09 | 51.66425 | -8.20717 | 10585 ft | 317 kts | 131° |
| 2026-05-07 19:09 | 51.64993 | -8.17837 | 10828 ft | 340 kts | 130° |
| 2026-05-07 19:09 | 51.63512 | -8.14856 | 11405 ft | 349 kts | 130° |
| 2026-05-07 19:10 | 51.61980 | -8.11773 | 12178 ft | 353 kts | 130° |
| 2026-05-07 19:10 | 51.60441 | -8.08676 | 12989 ft | 355 kts | 131° |
| 2026-05-07 19:10 | 51.58887 | -8.05553 | 13761 ft | 359 kts | 131° |
| 2026-05-07 19:10 | 51.57310 | -8.02390 | 14446 ft | 363 kts | 131° |
| 2026-05-07 19:11 | 51.55742 | -7.99250 | 15137 ft | 366 kts | 131° |
| 2026-05-07 19:11 | 51.54138 | -7.96043 | 15839 ft | 369 kts | 131° |
| 2026-05-07 19:11 | 51.52521 | -7.92814 | 16543 ft | 372 kts | 131° |
| 2026-05-07 19:11 | 51.50892 | -7.89563 | 17224 ft | 376 kts | 131° |
| 2026-05-07 19:12 | 51.49234 | -7.86261 | 17887 ft | 380 kts | 131° |
| 2026-05-07 19:12 | 51.47561 | -7.82934 | 18511 ft | 383 kts | 131° |
| 2026-05-07 19:12 | 51.45880 | -7.79594 | 19096 ft | 386 kts | 131° |
| 2026-05-07 19:12 | 51.44204 | -7.76267 | 19691 ft | 389 kts | 131° |
| 2026-05-07 19:13 | 51.42498 | -7.72886 | 20273 ft | 392 kts | 131° |
| 2026-05-07 19:13 | 51.40772 | -7.69472 | 20842 ft | 395 kts | 131° |
| 2026-05-07 19:13 | 51.39035 | -7.66039 | 21409 ft | 398 kts | 131° |
| 2026-05-07 19:13 | 51.37283 | -7.62582 | 21971 ft | 400 kts | 131° |
| 2026-05-07 19:14 | 51.35516 | -7.59098 | 22512 ft | 404 kts | 131° |
| 2026-05-07 19:14 | 51.33735 | -7.55594 | 23048 ft | 407 kts | 131° |
| 2026-05-07 19:14 | 51.31966 | -7.52117 | 23536 ft | 410 kts | 131° |
| 2026-05-07 19:14 | 51.30157 | -7.48567 | 23975 ft | 413 kts | 131° |
| 2026-05-07 19:15 | 51.28337 | -7.44998 | 24417 ft | 415 kts | 131° |
| 2026-05-07 19:15 | 51.26505 | -7.41412 | 24846 ft | 418 kts | 131° |
| 2026-05-07 19:15 | 51.24657 | -7.37799 | 25263 ft | 421 kts | 131° |
| 2026-05-07 19:15 | 51.22792 | -7.34159 | 25671 ft | 423 kts | 131° |
| 2026-05-07 19:16 | 51.20921 | -7.30512 | 26070 ft | 426 kts | 131° |
| 2026-05-07 19:16 | 51.19037 | -7.26844 | 26467 ft | 429 kts | 131° |
| 2026-05-07 19:16 | 51.17138 | -7.23154 | 26848 ft | 431 kts | 131° |
| 2026-05-07 19:16 | 51.15253 | -7.19496 | 27221 ft | 434 kts | 131° |
| 2026-05-07 19:17 | 51.13324 | -7.15757 | 27593 ft | 436 kts | 131° |
| 2026-05-07 19:17 | 51.11393 | -7.12020 | 27941 ft | 439 kts | 132° |
| 2026-05-07 19:17 | 51.09449 | -7.08264 | 28385 ft | 439 kts | 132° |
| 2026-05-07 19:17 | 51.07499 | -7.04500 | 28781 ft | 440 kts | 132° |
| 2026-05-07 19:18 | 51.05567 | -7.00776 | 29120 ft | 442 kts | 132° |
| 2026-05-07 19:18 | 51.03600 | -6.96993 | 29436 ft | 445 kts | 132° |
| 2026-05-07 19:18 | 51.01618 | -6.93186 | 29747 ft | 447 kts | 132° |
| 2026-05-07 19:18 | 50.99629 | -6.89370 | 30058 ft | 449 kts | 132° |
| 2026-05-07 19:19 | 50.97627 | -6.85535 | 30331 ft | 451 kts | 132° |
| 2026-05-07 19:19 | 50.95617 | -6.81692 | 30637 ft | 452 kts | 132° |
| 2026-05-07 19:19 | 50.93611 | -6.77859 | 31001 ft | 451 kts | 132° |
| 2026-05-07 19:19 | 50.91624 | -6.74068 | 31353 ft | 450 kts | 132° |
| 2026-05-07 19:20 | 50.89619 | -6.70250 | 31660 ft | 451 kts | 132° |
| 2026-05-07 19:20 | 50.87609 | -6.66429 | 31958 ft | 451 kts | 132° |
| 2026-05-07 19:20 | 50.85595 | -6.62605 | 32281 ft | 451 kts | 132° |
| 2026-05-07 19:20 | 50.83587 | -6.58797 | 32620 ft | 451 kts | 132° |
| 2026-05-07 19:21 | 50.81577 | -6.54993 | 32958 ft | 450 kts | 132° |
| 2026-05-07 19:21 | 50.79567 | -6.51195 | 33344 ft | 448 kts | 132° |
| 2026-05-07 19:21 | 50.77564 | -6.47413 | 33632 ft | 449 kts | 132° |
| 2026-05-07 19:21 | 50.75574 | -6.43664 | 33881 ft | 450 kts | 132° |
| 2026-05-07 19:22 | 50.73557 | -6.39869 | 34140 ft | 450 kts | 132° |
| 2026-05-07 19:22 | 50.71540 | -6.36079 | 34382 ft | 450 kts | 132° |
| 2026-05-07 19:22 | 50.69523 | -6.32296 | 34565 ft | 452 kts | 132° |
| 2026-05-07 19:22 | 50.67491 | -6.28489 | 34718 ft | 454 kts | 132° |
| 2026-05-07 19:23 | 50.65452 | -6.24676 | 34937 ft | 454 kts | 132° |
| 2026-05-07 19:23 | 50.63416 | -6.20871 | 35168 ft | 454 kts | 132° |
| 2026-05-07 19:23 | 50.61372 | -6.17059 | 35345 ft | 456 kts | 132° |
| 2026-05-07 19:23 | 50.59321 | -6.13238 | 35498 ft | 458 kts | 132° |
| 2026-05-07 19:24 | 50.57264 | -6.09413 | 35694 ft | 458 kts | 132° |
| 2026-05-07 19:24 | 50.55224 | -6.05626 | 35922 ft | 458 kts | 132° |
| 2026-05-07 19:24 | 50.53154 | -6.01788 | 36141 ft | 458 kts | 133° |
| 2026-05-07 19:24 | 50.51093 | -5.97971 | 36349 ft | 459 kts | 133° |
| 2026-05-07 19:25 | 50.49023 | -5.94144 | 36486 ft | 460 kts | 133° |
| 2026-05-07 19:25 | 50.46945 | -5.90309 | 36657 ft | 461 kts | 133° |
| 2026-05-07 19:25 | 50.44890 | -5.86520 | 36863 ft | 461 kts | 133° |
| 2026-05-07 19:25 | 50.42806 | -5.82684 | 37006 ft | 462 kts | 133° |
| 2026-05-07 19:26 | 50.38603 | -5.74967 | 37005 ft | 464 kts | 133° |
| 2026-05-07 19:26 | 50.34415 | -5.67296 | 36992 ft | 460 kts | 133° |
| 2026-05-07 19:27 | 50.30280 | -5.59746 | 36996 ft | 457 kts | 133° |
| 2026-05-07 19:27 | 50.26160 | -5.52247 | 36990 ft | 455 kts | 133° |
| 2026-05-07 19:28 | 50.22028 | -5.44747 | 36992 ft | 454 kts | 133° |
| 2026-05-07 19:28 | 50.17899 | -5.37277 | 37002 ft | 454 kts | 133° |
| 2026-05-07 19:29 | 50.13753 | -5.29797 | 37000 ft | 456 kts | 133° |
| 2026-05-07 19:29 | 50.09611 | -5.22343 | 37000 ft | 459 kts | 133° |
| 2026-05-07 19:30 | 50.05415 | -5.14816 | 36992 ft | 460 kts | 133° |
| 2026-05-07 19:30 | 50.01201 | -5.07276 | 36998 ft | 462 kts | 133° |
| 2026-05-07 19:31 | 49.96990 | -4.99765 | 36996 ft | 464 kts | 133° |
| 2026-05-07 19:31 | 49.92745 | -4.92214 | 36994 ft | 464 kts | 133° |
| 2026-05-07 19:32 | 49.88483 | -4.84657 | 36993 ft | 465 kts | 133° |
| 2026-05-07 19:32 | 49.84222 | -4.77122 | 36989 ft | 464 kts | 134° |
| 2026-05-07 19:33 | 49.79982 | -4.69644 | 36997 ft | 463 kts | 134° |
| 2026-05-07 19:33 | 49.75715 | -4.62142 | 36991 ft | 463 kts | 134° |
| 2026-05-07 19:34 | 49.71455 | -4.54674 | 36991 ft | 462 kts | 134° |
| 2026-05-07 19:34 | 49.67199 | -4.47231 | 36985 ft | 461 kts | 134° |
| 2026-05-07 19:35 | 49.62968 | -4.39855 | 36983 ft | 460 kts | 134° |
| 2026-05-07 19:35 | 49.59278 | -4.31763 | 37000 ft | 464 kts | 118° |
| 2026-05-07 19:36 | 49.57265 | -4.22350 | 37003 ft | 467 kts | 105° |
| 2026-05-07 19:36 | 49.55841 | -4.12559 | 36995 ft | 468 kts | 104° |
| 2026-05-07 19:37 | 49.54405 | -4.02768 | 36985 ft | 468 kts | 105° |
| 2026-05-07 19:37 | 49.52930 | -3.93048 | 36989 ft | 468 kts | 105° |
| 2026-05-07 19:38 | 49.51418 | -3.83282 | 36991 ft | 469 kts | 105° |
| 2026-05-07 19:38 | 49.49894 | -3.73524 | 36986 ft | 469 kts | 105° |
| 2026-05-07 19:39 | 49.48373 | -3.63828 | 36992 ft | 470 kts | 105° |
| 2026-05-07 19:39 | 49.46829 | -3.54044 | 36974 ft | 470 kts | 105° |
| 2026-05-07 19:40 | 49.45277 | -3.44263 | 36989 ft | 470 kts | 105° |
| 2026-05-07 19:40 | 49.43730 | -3.34568 | 36995 ft | 470 kts | 105° |
| 2026-05-07 19:41 | 49.42163 | -3.24809 | 36997 ft | 470 kts | 106° |
| 2026-05-07 19:41 | 49.40596 | -3.15102 | 36997 ft | 469 kts | 106° |
| 2026-05-07 19:42 | 49.39015 | -3.05368 | 36993 ft | 469 kts | 106° |
| 2026-05-07 19:42 | 49.37425 | -2.95636 | 37001 ft | 469 kts | 106° |
| 2026-05-07 19:43 | 49.35838 | -2.85979 | 37000 ft | 469 kts | 106° |
| 2026-05-07 19:43 | 49.34235 | -2.76278 | 37018 ft | 469 kts | 106° |
| 2026-05-07 19:44 | 49.32625 | -2.66589 | 37006 ft | 469 kts | 106° |
| 2026-05-07 19:44 | 49.31006 | -2.56907 | 37018 ft | 468 kts | 106° |
| 2026-05-07 19:45 | 49.29381 | -2.47237 | 37017 ft | 468 kts | 107° |
| 2026-05-07 19:45 | 49.27746 | -2.37561 | 37001 ft | 468 kts | 107° |
| 2026-05-07 19:46 | 49.26106 | -2.27915 | 37023 ft | 468 kts | 107° |
| 2026-05-07 19:46 | 49.24470 | -2.18338 | 37011 ft | 468 kts | 107° |
| 2026-05-07 19:47 | 49.22814 | -2.08690 | 37010 ft | 468 kts | 107° |
| 2026-05-07 19:47 | 49.21198 | -1.99032 | 37018 ft | 468 kts | 105° |
| 2026-05-07 19:48 | 49.19728 | -1.89372 | 37016 ft | 469 kts | 105° |
| 2026-05-07 19:48 | 49.18260 | -1.79644 | 37014 ft | 469 kts | 105° |
| 2026-05-07 19:49 | 49.17023 | -1.71582 | 37011 ft | 468 kts | 105° |
| 2026-05-07 19:49 | 49.15514 | -1.61881 | 37016 ft | 468 kts | 105° |
| 2026-05-07 19:50 | 49.14001 | -1.52238 | 37015 ft | 468 kts | 105° |
| 2026-05-07 19:50 | 49.12475 | -1.42572 | 37018 ft | 468 kts | 105° |
| 2026-05-07 19:51 | 49.10938 | -1.32892 | 37021 ft | 468 kts | 105° |
| 2026-05-07 19:51 | 49.09401 | -1.23258 | 37024 ft | 468 kts | 105° |
| 2026-05-07 19:52 | 49.07846 | -1.13578 | 37026 ft | 468 kts | 106° |
| 2026-05-07 19:52 | 49.06290 | -1.03938 | 37020 ft | 468 kts | 106° |
| 2026-05-07 19:53 | 49.04724 | -0.94302 | 37024 ft | 468 kts | 106° |
| 2026-05-07 19:53 | 49.03158 | -0.84715 | 37015 ft | 468 kts | 106° |
| 2026-05-07 19:54 | 49.01574 | -0.75073 | 37027 ft | 468 kts | 106° |
| 2026-05-07 19:54 | 48.99996 | -0.65521 | 37021 ft | 468 kts | 106° |
| 2026-05-07 19:55 | 48.98399 | -0.55909 | 37018 ft | 468 kts | 106° |
| 2026-05-07 19:55 | 48.96795 | -0.46296 | 37027 ft | 468 kts | 105° |
| 2026-05-07 19:56 | 48.95523 | -0.36599 | 37025 ft | 469 kts | 102° |
| 2026-05-07 19:56 | 48.94452 | -0.26785 | 37023 ft | 470 kts | 101° |
| 2026-05-07 19:57 | 48.93365 | -0.17028 | 37026 ft | 470 kts | 102° |
| 2026-05-07 19:57 | 48.92224 | -0.07235 | 37024 ft | 470 kts | 102° |
| 2026-05-07 19:58 | 48.91054 | 0.02551 | 37012 ft | 470 kts | 102° |
| 2026-05-07 19:58 | 48.89878 | 0.12287 | 37021 ft | 470 kts | 102° |
| 2026-05-07 19:59 | 48.88689 | 0.22062 | 37022 ft | 470 kts | 102° |
| 2026-05-07 19:59 | 48.87492 | 0.31846 | 37021 ft | 470 kts | 102° |
| 2026-05-07 20:00 | 48.86289 | 0.41607 | 37023 ft | 470 kts | 102° |
| 2026-05-07 20:00 | 48.85086 | 0.51299 | 37020 ft | 470 kts | 103° |
| 2026-05-07 20:01 | 48.83866 | 0.61057 | 37030 ft | 470 kts | 103° |
| 2026-05-07 20:01 | 48.82637 | 0.70816 | 37028 ft | 470 kts | 103° |
| 2026-05-07 20:02 | 48.81408 | 0.80502 | 37025 ft | 470 kts | 103° |
| 2026-05-07 20:02 | 48.80164 | 0.90241 | 37017 ft | 470 kts | 103° |
| 2026-05-07 20:03 | 48.78910 | 0.99981 | 37027 ft | 470 kts | 103° |
| 2026-05-07 20:03 | 48.77649 | 1.09716 | 37029 ft | 470 kts | 103° |
| 2026-05-07 20:04 | 48.76389 | 1.19373 | 37023 ft | 470 kts | 103° |
| 2026-05-07 20:04 | 48.75110 | 1.29109 | 37031 ft | 470 kts | 103° |
| 2026-05-07 20:05 | 48.73822 | 1.38841 | 37028 ft | 470 kts | 103° |
| 2026-05-07 20:05 | 48.72526 | 1.48574 | 37032 ft | 471 kts | 103° |
| 2026-05-07 20:06 | 48.71226 | 1.58270 | 37030 ft | 471 kts | 103° |
| 2026-05-07 20:06 | 48.69910 | 1.68014 | 37031 ft | 472 kts | 103° |
| 2026-05-07 20:07 | 48.68593 | 1.77701 | 37027 ft | 472 kts | 103° |
| 2026-05-07 20:07 | 48.67258 | 1.87461 | 37032 ft | 472 kts | 103° |
| 2026-05-07 20:08 | 48.65925 | 1.97135 | 37044 ft | 473 kts | 104° |
| 2026-05-07 20:08 | 48.64572 | 2.06894 | 37042 ft | 473 kts | 104° |
| 2026-05-07 20:09 | 48.63213 | 2.16629 | 37044 ft | 473 kts | 104° |
| 2026-05-07 20:10 | 48.61164 | 2.31191 | 37045 ft | 473 kts | 104° |
| 2026-05-07 20:10 | 48.59781 | 2.40932 | 37047 ft | 473 kts | 104° |
| 2026-05-07 20:11 | 48.58401 | 2.50599 | 37053 ft | 473 kts | 104° |
| 2026-05-07 20:11 | 48.57000 | 2.60347 | 37038 ft | 474 kts | 104° |
| 2026-05-07 20:12 | 48.55591 | 2.70088 | 37048 ft | 474 kts | 104° |
| 2026-05-07 20:12 | 48.54185 | 2.79748 | 37048 ft | 474 kts | 104° |
| 2026-05-07 20:13 | 48.52760 | 2.89472 | 37044 ft | 474 kts | 104° |
| 2026-05-07 20:13 | 48.51333 | 2.99152 | 37045 ft | 474 kts | 104° |
| 2026-05-07 20:14 | 48.49892 | 3.08871 | 37040 ft | 474 kts | 104° |
| 2026-05-07 20:14 | 48.48443 | 3.18580 | 37045 ft | 474 kts | 104° |
| 2026-05-07 20:15 | 48.46995 | 3.28220 | 37048 ft | 474 kts | 104° |
| 2026-05-07 20:15 | 48.45527 | 3.37932 | 37050 ft | 474 kts | 105° |
| 2026-05-07 20:16 | 48.44053 | 3.47630 | 37044 ft | 474 kts | 105° |
| 2026-05-07 20:16 | 48.42579 | 3.57262 | 37050 ft | 474 kts | 105° |
| 2026-05-07 20:17 | 48.41088 | 3.66952 | 37047 ft | 475 kts | 105° |
| 2026-05-07 20:17 | 48.39585 | 3.76658 | 37049 ft | 475 kts | 105° |
| 2026-05-07 20:18 | 48.38088 | 3.86272 | 37053 ft | 475 kts | 105° |
| 2026-05-07 20:18 | 48.36569 | 3.95967 | 37036 ft | 475 kts | 105° |
| 2026-05-07 20:19 | 48.35053 | 4.05590 | 37053 ft | 475 kts | 105° |
| 2026-05-07 20:19 | 48.33516 | 4.15279 | 37054 ft | 476 kts | 105° |
| 2026-05-07 20:20 | 48.31973 | 4.24956 | 37051 ft | 476 kts | 105° |
| 2026-05-07 20:20 | 48.30428 | 4.34589 | 37052 ft | 476 kts | 105° |
| 2026-05-07 20:21 | 48.28865 | 4.44276 | 37051 ft | 477 kts | 105° |
| 2026-05-07 20:21 | 48.27302 | 4.53905 | 37054 ft | 477 kts | 105° |
| 2026-05-07 20:22 | 48.25721 | 4.63594 | 37054 ft | 477 kts | 105° |
| 2026-05-07 20:22 | 48.24131 | 4.73283 | 37055 ft | 477 kts | 105° |
| 2026-05-07 20:23 | 48.22541 | 4.82913 | 37049 ft | 477 kts | 106° |
| 2026-05-07 20:23 | 48.20940 | 4.92552 | 37055 ft | 476 kts | 106° |
| 2026-05-07 20:24 | 48.19328 | 5.02205 | 37057 ft | 476 kts | 106° |
| 2026-05-07 20:24 | 48.17712 | 5.11831 | 37052 ft | 476 kts | 106° |
| 2026-05-07 20:25 | 48.16097 | 5.21396 | 37054 ft | 476 kts | 106° |
| 2026-05-07 20:25 | 48.14462 | 5.31022 | 37061 ft | 476 kts | 106° |
| 2026-05-07 20:26 | 48.12824 | 5.40617 | 37057 ft | 476 kts | 106° |
| 2026-05-07 20:26 | 48.11177 | 5.50211 | 37053 ft | 476 kts | 106° |
| 2026-05-07 20:27 | 48.09530 | 5.59751 | 37054 ft | 475 kts | 106° |
| 2026-05-07 20:27 | 48.07866 | 5.69341 | 37040 ft | 475 kts | 107° |
| 2026-05-07 20:28 | 48.06194 | 5.78917 | 37053 ft | 476 kts | 107° |
| 2026-05-07 20:28 | 48.04515 | 5.88491 | 37050 ft | 476 kts | 107° |
| 2026-05-07 20:29 | 48.02834 | 5.98020 | 37047 ft | 477 kts | 107° |
| 2026-05-07 20:29 | 48.01132 | 6.07614 | 37055 ft | 477 kts | 107° |
| 2026-05-07 20:30 | 47.99423 | 6.17203 | 37050 ft | 478 kts | 107° |
| 2026-05-07 20:30 | 47.97698 | 6.26826 | 37057 ft | 479 kts | 107° |
| 2026-05-07 20:31 | 47.95968 | 6.36423 | 37051 ft | 479 kts | 107° |
| 2026-05-07 20:31 | 47.94236 | 6.45985 | 37054 ft | 480 kts | 107° |
| 2026-05-07 20:32 | 47.92480 | 6.55628 | 37055 ft | 480 kts | 107° |
| 2026-05-07 20:32 | 47.90720 | 6.65244 | 37058 ft | 480 kts | 107° |
| 2026-05-07 20:33 | 47.88963 | 6.74791 | 37055 ft | 480 kts | 107° |
| 2026-05-07 20:33 | 47.87189 | 6.84387 | 37060 ft | 479 kts | 107° |
| 2026-05-07 20:34 | 47.85407 | 6.93967 | 37065 ft | 479 kts | 107° |
| 2026-05-07 20:34 | 47.83633 | 7.03459 | 37048 ft | 477 kts | 107° |
| 2026-05-07 20:35 | 47.81848 | 7.12965 | 37060 ft | 477 kts | 108° |
| 2026-05-07 20:35 | 47.80358 | 7.20860 | 37044 ft | 477 kts | 108° |
| 2026-05-07 20:36 | 47.78554 | 7.30381 | 37060 ft | 477 kts | 108° |
| 2026-05-07 20:36 | 47.76755 | 7.39828 | 37052 ft | 477 kts | 108° |
| 2026-05-07 20:37 | 47.74862 | 7.49288 | 37046 ft | 476 kts | 116° |
| 2026-05-07 20:37 | 47.73186 | 7.53456 | 37065 ft | 467 kts | 134° |
| 2026-05-07 20:37 | 47.70869 | 7.56779 | 37045 ft | 461 kts | 148° |
| 2026-05-07 20:37 | 47.68103 | 7.59132 | 37067 ft | 454 kts | 159° |
| 2026-05-07 20:38 | 47.65233 | 7.61110 | 37052 ft | 455 kts | 160° |
| 2026-05-07 20:38 | 47.59473 | 7.65011 | 37046 ft | 458 kts | 159° |
| 2026-05-07 20:39 | 47.53697 | 7.68982 | 37032 ft | 460 kts | 159° |
| 2026-05-07 20:39 | 47.47883 | 7.73033 | 37042 ft | 462 kts | 159° |
| 2026-05-07 20:40 | 47.42066 | 7.77100 | 37044 ft | 463 kts | 159° |
| 2026-05-07 20:40 | 47.36258 | 7.81153 | 37041 ft | 463 kts | 159° |
| 2026-05-07 20:41 | 47.30402 | 7.85226 | 37022 ft | 464 kts | 159° |
| 2026-05-07 20:41 | 47.24579 | 7.89265 | 37029 ft | 463 kts | 159° |
| 2026-05-07 20:42 | 47.18771 | 7.93283 | 37027 ft | 462 kts | 159° |
| 2026-05-07 20:42 | 47.12952 | 7.97299 | 37025 ft | 461 kts | 159° |
| 2026-05-07 20:43 | 47.07135 | 8.01304 | 37036 ft | 460 kts | 159° |
| 2026-05-07 20:43 | 47.01333 | 8.05288 | 37040 ft | 460 kts | 159° |
| 2026-05-07 20:44 | 46.95575 | 8.09233 | 37033 ft | 459 kts | 159° |
| 2026-05-07 20:44 | 46.89785 | 8.13191 | 37044 ft | 459 kts | 159° |
| 2026-05-07 20:45 | 46.83995 | 8.17139 | 37043 ft | 458 kts | 160° |
| 2026-05-07 20:45 | 46.78212 | 8.21072 | 37062 ft | 458 kts | 160° |
| 2026-05-07 20:46 | 46.72415 | 8.25005 | 37054 ft | 458 kts | 160° |
| 2026-05-07 20:46 | 46.66642 | 8.28913 | 37039 ft | 459 kts | 160° |
| 2026-05-07 20:47 | 46.60834 | 8.32836 | 37037 ft | 460 kts | 160° |
| 2026-05-07 20:47 | 46.55033 | 8.36745 | 37027 ft | 461 kts | 160° |
| 2026-05-07 20:48 | 46.49235 | 8.40642 | 37023 ft | 460 kts | 160° |
| 2026-05-07 20:48 | 46.43426 | 8.44535 | 37020 ft | 459 kts | 160° |
| 2026-05-07 20:49 | 46.37616 | 8.48425 | 37006 ft | 459 kts | 160° |
| 2026-05-07 20:49 | 46.31869 | 8.52263 | 37035 ft | 456 kts | 160° |
| 2026-05-07 20:50 | 46.26093 | 8.56111 | 37008 ft | 456 kts | 160° |
| 2026-05-07 20:50 | 46.20346 | 8.59933 | 37001 ft | 452 kts | 160° |
| 2026-05-07 20:51 | 46.14619 | 8.63726 | 37006 ft | 452 kts | 160° |
| 2026-05-07 20:51 | 46.08926 | 8.67577 | 37011 ft | 451 kts | 157° |
| 2026-05-07 20:52 | 46.03414 | 8.71865 | 37013 ft | 455 kts | 156° |
| 2026-05-07 20:52 | 45.97845 | 8.76313 | 37026 ft | 459 kts | 156° |
| 2026-05-07 20:53 | 45.92216 | 8.80745 | 37030 ft | 462 kts | 156° |
| 2026-05-07 20:53 | 45.86541 | 8.85166 | 37022 ft | 465 kts | 156° |
| 2026-05-07 20:54 | 45.80864 | 8.89574 | 36992 ft | 466 kts | 156° |
| 2026-05-07 20:54 | 45.75151 | 8.94003 | 37005 ft | 466 kts | 156° |
| 2026-05-07 20:55 | 45.69483 | 8.98388 | 37011 ft | 464 kts | 157° |
| 2026-05-07 20:55 | 45.63974 | 9.03280 | 36995 ft | 470 kts | 145° |
| 2026-05-07 20:56 | 45.59404 | 9.10048 | 36977 ft | 474 kts | 136° |
| 2026-05-07 20:56 | 45.55033 | 9.17097 | 36992 ft | 472 kts | 136° |
| 2026-05-07 20:57 | 45.50672 | 9.24024 | 36993 ft | 471 kts | 137° |
| 2026-05-07 20:57 | 45.46261 | 9.30933 | 37023 ft | 470 kts | 137° |
| 2026-05-07 20:58 | 45.41834 | 9.37828 | 36995 ft | 470 kts | 137° |
| 2026-05-07 20:58 | 45.37428 | 9.44677 | 36994 ft | 471 kts | 138° |
| 2026-05-07 20:59 | 45.32994 | 9.51555 | 37004 ft | 472 kts | 138° |
| 2026-05-07 20:59 | 45.28536 | 9.58456 | 36993 ft | 474 kts | 138° |
| 2026-05-07 21:00 | 45.24084 | 9.65332 | 36979 ft | 476 kts | 138° |
| 2026-05-07 21:00 | 45.19590 | 9.72256 | 36975 ft | 477 kts | 138° |
| 2026-05-07 21:01 | 45.15089 | 9.79184 | 36938 ft | 472 kts | 138° |
| 2026-05-07 21:01 | 45.12905 | 9.82554 | 36947 ft | 457 kts | 139° |
| 2026-05-07 21:01 | 45.10785 | 9.85826 | 36960 ft | 443 kts | 139° |
| 2026-05-07 21:01 | 45.08755 | 9.88950 | 36952 ft | 430 kts | 139° |
| 2026-05-07 21:02 | 45.06750 | 9.92028 | 36956 ft | 416 kts | 139° |
| 2026-05-07 21:02 | 45.02837 | 9.98004 | 36537 ft | 414 kts | 140° |
| 2026-05-07 21:02 | 45.00858 | 10.01011 | 35751 ft | 423 kts | 140° |
| 2026-05-07 21:03 | 44.98819 | 10.04106 | 34793 ft | 437 kts | 140° |
| 2026-05-07 21:03 | 44.96735 | 10.07269 | 33714 ft | 454 kts | 140° |
| 2026-05-07 21:03 | 44.94547 | 10.10596 | 32525 ft | 469 kts | 139° |
| 2026-05-07 21:03 | 44.92308 | 10.14013 | 31504 ft | 479 kts | 139° |
| 2026-05-07 21:04 | 44.90033 | 10.17487 | 30782 ft | 481 kts | 139° |
| 2026-05-07 21:04 | 44.87769 | 10.20934 | 30358 ft | 476 kts | 139° |
| 2026-05-07 21:04 | 44.85429 | 10.24164 | 29925 ft | 460 kts | 151° |
| 2026-05-07 21:04 | 44.82680 | 10.26198 | 29390 ft | 437 kts | 170° |
| 2026-05-07 21:05 | 44.79766 | 10.27082 | 28893 ft | 419 kts | 181° |
| 2026-05-07 21:05 | 44.76933 | 10.27143 | 28325 ft | 405 kts | 193° |
| 2026-05-07 21:05 | 44.74208 | 10.26366 | 27736 ft | 396 kts | 201° |
| 2026-05-07 21:05 | 44.71558 | 10.25318 | 27157 ft | 393 kts | 202° |
| 2026-05-07 21:06 | 44.68937 | 10.24252 | 26621 ft | 391 kts | 202° |
| 2026-05-07 21:06 | 44.66320 | 10.23197 | 26080 ft | 390 kts | 201° |
| 2026-05-07 21:06 | 44.63710 | 10.22161 | 25572 ft | 388 kts | 201° |
| 2026-05-07 21:06 | 44.61142 | 10.21156 | 25060 ft | 386 kts | 200° |
| 2026-05-07 21:07 | 44.58552 | 10.20152 | 24550 ft | 385 kts | 199° |
| 2026-05-07 21:07 | 44.55965 | 10.19155 | 24060 ft | 384 kts | 199° |
| 2026-05-07 21:07 | 44.53417 | 10.18174 | 23567 ft | 383 kts | 199° |
| 2026-05-07 21:07 | 44.50856 | 10.17189 | 23041 ft | 381 kts | 198° |
| 2026-05-07 21:08 | 44.48313 | 10.16213 | 22571 ft | 377 kts | 198° |
| 2026-05-07 21:08 | 44.45779 | 10.15282 | 22084 ft | 375 kts | 197° |
| 2026-05-07 21:08 | 44.43257 | 10.14392 | 21570 ft | 373 kts | 197° |
| 2026-05-07 21:08 | 44.40745 | 10.13514 | 21104 ft | 370 kts | 196° |
| 2026-05-07 21:09 | 44.38253 | 10.12641 | 20636 ft | 368 kts | 196° |
| 2026-05-07 21:09 | 44.35762 | 10.11765 | 20175 ft | 366 kts | 196° |
| 2026-05-07 21:09 | 44.33326 | 10.10905 | 19721 ft | 364 kts | 196° |
| 2026-05-07 21:09 | 44.30876 | 10.10040 | 19291 ft | 362 kts | 195° |
| 2026-05-07 21:10 | 44.28436 | 10.09179 | 18854 ft | 360 kts | 195° |
| 2026-05-07 21:10 | 44.26012 | 10.08326 | 18401 ft | 358 kts | 195° |
| 2026-05-07 21:10 | 44.23570 | 10.07683 | 17931 ft | 358 kts | 186° |
| 2026-05-07 21:10 | 44.21083 | 10.07693 | 17490 ft | 356 kts | 176° |
| 2026-05-07 21:11 | 44.18649 | 10.08298 | 17049 ft | 355 kts | 167° |
| 2026-05-07 21:11 | 44.16262 | 10.09174 | 16611 ft | 352 kts | 166° |
| 2026-05-07 21:11 | 44.11576 | 10.10919 | 15762 ft | 347 kts | 167° |
| 2026-05-07 21:12 | 44.09244 | 10.11759 | 15355 ft | 345 kts | 167° |
| 2026-05-07 21:12 | 44.06918 | 10.12588 | 14943 ft | 343 kts | 167° |
| 2026-05-07 21:12 | 44.04642 | 10.13406 | 14556 ft | 341 kts | 166° |
| 2026-05-07 21:12 | 44.02357 | 10.14246 | 14156 ft | 339 kts | 166° |
| 2026-05-07 21:13 | 44.00082 | 10.15087 | 13762 ft | 337 kts | 166° |
| 2026-05-07 21:13 | 43.97821 | 10.15921 | 13321 ft | 335 kts | 166° |
| 2026-05-07 21:13 | 43.95566 | 10.16749 | 12867 ft | 333 kts | 166° |
| 2026-05-07 21:13 | 43.93316 | 10.17574 | 12344 ft | 334 kts | 166° |
| 2026-05-07 21:14 | 43.91047 | 10.18258 | 11902 ft | 332 kts | 175° |
| 2026-05-07 21:14 | 43.88750 | 10.18181 | 11499 ft | 328 kts | 189° |
| 2026-05-07 21:14 | 43.86546 | 10.17414 | 11106 ft | 326 kts | 197° |
| 2026-05-07 21:14 | 43.84389 | 10.16477 | 10698 ft | 324 kts | 198° |
| 2026-05-07 21:15 | 43.82295 | 10.15547 | 10547 ft | 314 kts | 198° |
| 2026-05-07 21:15 | 43.80241 | 10.14637 | 10393 ft | 305 kts | 198° |
| 2026-05-07 21:15 | 43.78240 | 10.13759 | 10253 ft | 296 kts | 198° |
| 2026-05-07 21:15 | 43.76301 | 10.12915 | 10133 ft | 288 kts | 198° |
| 2026-05-07 21:16 | 43.74413 | 10.12099 | 9999 ft | 280 kts | 198° |
| 2026-05-07 21:16 | 43.72560 | 10.11301 | 9713 ft | 278 kts | 197° |
| 2026-05-07 21:16 | 43.70734 | 10.10517 | 9431 ft | 276 kts | 197° |
| 2026-05-07 21:16 | 43.68907 | 10.09734 | 9144 ft | 274 kts | 197° |
| 2026-05-07 21:17 | 43.67088 | 10.08955 | 8865 ft | 272 kts | 197° |
| 2026-05-07 21:17 | 43.65277 | 10.08181 | 8588 ft | 271 kts | 197° |
| 2026-05-07 21:17 | 43.63482 | 10.07415 | 8309 ft | 269 kts | 197° |
| 2026-05-07 21:17 | 43.61691 | 10.06651 | 8040 ft | 268 kts | 197° |
| 2026-05-07 21:18 | 43.59911 | 10.05891 | 7769 ft | 266 kts | 197° |
| 2026-05-07 21:18 | 43.58163 | 10.05146 | 7502 ft | 264 kts | 196° |
| 2026-05-07 21:18 | 43.56405 | 10.04397 | 7234 ft | 263 kts | 196° |
| 2026-05-07 21:18 | 43.54652 | 10.03651 | 6967 ft | 262 kts | 196° |
| 2026-05-07 21:19 | 43.52913 | 10.02912 | 6704 ft | 261 kts | 196° |
| 2026-05-07 21:19 | 43.51199 | 10.02184 | 6439 ft | 261 kts | 196° |
| 2026-05-07 21:19 | 43.49466 | 10.01450 | 6160 ft | 259 kts | 194° |
| 2026-05-07 21:19 | 43.47693 | 10.01289 | 5863 ft | 256 kts | 166° |
| 2026-05-07 21:20 | 43.46136 | 10.02364 | 5715 ft | 247 kts | 140° |
| 2026-05-07 21:20 | 43.45345 | 10.03468 | 5651 ft | 243 kts | 129° |
| 2026-05-07 21:20 | 43.44328 | 10.05310 | 5550 ft | 241 kts | 126° |
| 2026-05-07 21:20 | 43.43015 | 10.07806 | 5416 ft | 244 kts | 124° |
| 2026-05-07 21:21 | 43.42509 | 10.09189 | 5330 ft | 246 kts | 104° |
| 2026-05-07 21:21 | 43.42606 | 10.11508 | 5189 ft | 249 kts | 68° |
| 2026-05-07 21:21 | 43.43639 | 10.13419 | 4958 ft | 252 kts | 45° |
| 2026-05-07 21:21 | 43.45388 | 10.15556 | 4589 ft | 254 kts | 41° |
| 2026-05-07 21:22 | 43.46325 | 10.16570 | 4410 ft | 252 kts | 39° |
| 2026-05-07 21:22 | 43.47681 | 10.17983 | 4265 ft | 241 kts | 38° |
| 2026-05-07 21:22 | 43.49009 | 10.19355 | 4028 ft | 235 kts | 38° |
| 2026-05-07 21:22 | 43.50320 | 10.20711 | 3979 ft | 236 kts | 38° |
| 2026-05-07 21:23 | 43.51619 | 10.22058 | 3803 ft | 232 kts | 37° |
| 2026-05-07 21:23 | 43.52905 | 10.23391 | 3512 ft | 229 kts | 37° |
| 2026-05-07 21:23 | 43.54170 | 10.24703 | 3216 ft | 225 kts | 37° |
| 2026-05-07 21:23 | 43.55405 | 10.25983 | 2934 ft | 219 kts | 37° |
| 2026-05-07 21:24 | 43.56597 | 10.27219 | 2657 ft | 213 kts | 37° |
| 2026-05-07 21:24 | 43.57762 | 10.28427 | 2365 ft | 206 kts | 37° |
| 2026-05-07 21:24 | 43.58886 | 10.29592 | 2081 ft | 198 kts | 37° |
| 2026-05-07 21:24 | 43.59973 | 10.30718 | 1819 ft | 192 kts | 36° |
| 2026-05-07 21:25 | 43.61024 | 10.31807 | 1596 ft | 186 kts | 36° |
| 2026-05-07 21:25 | 43.62046 | 10.32866 | 1352 ft | 180 kts | 36° |
| 2026-05-07 21:25 | 43.63018 | 10.33873 | 1109 ft | 169 kts | 36° |
| 2026-05-07 21:25 | 43.63938 | 10.34823 | 854 ft | 163 kts | 36° |
| 2026-05-07 21:26 | 43.64802 | 10.35711 | 684 ft | 148 kts | 36° |
| 2026-05-07 21:26 | 43.65628 | 10.36564 | 463 ft | 148 kts | 37° |
| 2026-05-07 21:26 | 43.66436 | 10.37411 | 279 ft | 148 kts | 36° |
| 2026-05-07 21:26 | 43.67260 | 10.38266 | 100 ft | 148 kts | 36° |
| 2026-05-07 21:27 | 43.68054 | 10.39087 | 16 ft | 127 kts | 37° |
| 2026-05-07 21:27 | 43.68643 | 10.39700 | 17 ft | 85 kts | 37° |
| 2026-05-07 21:27 | 43.68995 | 10.40064 | 18 ft | 44 kts | 37° |
| 2026-05-07 21:27 | 43.69197 | 10.40273 | 21 ft | 21 kts | 37° |
| 2026-05-07 21:28 | 43.69280 | 10.40292 | 19 ft | 13 kts | 320° |
| 2026-05-07 21:28 | 43.69337 | 10.40188 | 19 ft | 13 kts | 306° |
| 2026-05-07 21:28 | 43.69393 | 10.40108 | 22 ft | 10 kts | 339° |
| 2026-05-07 21:28 | 43.69472 | 10.40088 | 17 ft | 14 kts | 352° |
| 2026-05-07 21:29 | 43.69572 | 10.40068 | 15 ft | 14 kts | 352° |
| 2026-05-07 21:29 | 43.69660 | 10.40051 | 14 ft | 10 kts | 348° |
| 2026-05-07 21:29 | 43.69689 | 10.39968 | 14 ft | 10 kts | 279° |
| 2026-05-07 21:29 | 43.69712 | 10.39906 | 15 ft | 6 kts | 353° |
| 2026-05-07 21:30 | 43.69747 | 10.39911 | 14 ft | 2 kts | 8° |
| 2026-05-07 21:30 | 43.69760 | 10.39913 | 14 ft | 0 kts | 8° |